sensor_id;sensor_type;location;lat;lon;timestamp;pressure;altitude;pressure_sealevel;temperature;humidity
30744;BME280;17486;46.738;7.622;2022-08-25T00:01:26;95234.50;;;21.75;49.40
30744;BME280;17486;46.738;7.622;2022-08-25T00:03:51;95210.91;;;21.54;49.62
30744;BME280;17486;46.738;7.622;2022-08-25T00:06:18;95215.59;;;21.50;49.80
30744;BME280;17486;46.738;7.622;2022-08-25T00:08:44;95216.44;;;21.51;49.93
30744;BME280;17486;46.738;7.622;2022-08-25T00:11:16;95207.97;;;21.47;49.79
30744;BME280;17486;46.738;7.622;2022-08-25T00:13:46;95204.06;;;21.42;49.91
30744;BME280;17486;46.738;7.622;2022-08-25T00:16:14;95238.88;;;21.57;49.80
30744;BME280;17486;46.738;7.622;2022-08-25T00:18:42;95232.59;;;21.48;49.93
30744;BME280;17486;46.738;7.622;2022-08-25T00:21:10;95244.00;;;21.48;50.08
30744;BME280;17486;46.738;7.622;2022-08-25T00:23:36;95244.88;;;21.49;49.89
30744;BME280;17486;46.738;7.622;2022-08-25T00:26:01;95217.47;;;21.30;49.94
30744;BME280;17486;46.738;7.622;2022-08-25T00:28:27;95248.19;;;21.51;50.13
30744;BME280;17486;46.738;7.622;2022-08-25T00:30:54;95240.25;;;21.51;50.11
30744;BME280;17486;46.738;7.622;2022-08-25T00:33:20;95213.16;;;21.29;50.15
30744;BME280;17486;46.738;7.622;2022-08-25T00:35:45;95252.81;;;21.39;50.21
30744;BME280;17486;46.738;7.622;2022-08-25T00:38:11;95215.13;;;21.08;50.45
30744;BME280;17486;46.738;7.622;2022-08-25T00:40:39;95250.19;;;21.19;50.55
30744;BME280;17486;46.738;7.622;2022-08-25T00:43:06;95252.16;;;21.17;50.78
30744;BME280;17486;46.738;7.622;2022-08-25T00:45:32;95217.97;;;20.96;50.87
30744;BME280;17486;46.738;7.622;2022-08-25T00:47:58;95248.97;;;21.14;50.98
30744;BME280;17486;46.738;7.622;2022-08-25T00:50:26;95244.94;;;21.10;50.81
30744;BME280;17486;46.738;7.622;2022-08-25T00:52:54;95238.25;;;21.06;50.93
30744;BME280;17486;46.738;7.622;2022-08-25T00:55:29;95249.41;;;21.09;50.86
30744;BME280;17486;46.738;7.622;2022-08-25T00:58:11;95203.47;;;20.91;51.17
30744;BME280;17486;46.738;7.622;2022-08-25T01:00:44;95230.59;;;21.02;50.96
30744;BME280;17486;46.738;7.622;2022-08-25T01:03:11;95237.41;;;21.05;51.10
30744;BME280;17486;46.738;7.622;2022-08-25T01:05:36;95239.13;;;20.96;51.03
30744;BME280;17486;46.738;7.622;2022-08-25T01:08:04;95244.81;;;20.92;51.04
30744;BME280;17486;46.738;7.622;2022-08-25T01:10:33;95234.94;;;20.84;51.20
30744;BME280;17486;46.738;7.622;2022-08-25T01:13:04;95215.06;;;20.70;51.12
30744;BME280;17486;46.738;7.622;2022-08-25T01:15:33;95212.28;;;20.72;51.21
30744;BME280;17486;46.738;7.622;2022-08-25T01:17:59;95239.97;;;20.87;51.33
30744;BME280;17486;46.738;7.622;2022-08-25T01:20:27;95246.34;;;20.84;51.18
30744;BME280;17486;46.738;7.622;2022-08-25T01:22:53;95225.63;;;20.70;51.16
30744;BME280;17486;46.738;7.622;2022-08-25T01:28:13;95217.09;;;20.66;51.59
30744;BME280;17486;46.738;7.622;2022-08-25T01:30:39;95246.34;;;20.84;51.65
30744;BME280;17486;46.738;7.622;2022-08-25T01:33:07;95223.50;;;20.64;51.54
30744;BME280;17486;46.738;7.622;2022-08-25T01:35:33;95255.41;;;20.82;51.76
30744;BME280;17486;46.738;7.622;2022-08-25T01:38:00;95251.63;;;20.75;51.71
30744;BME280;17486;46.738;7.622;2022-08-25T01:40:26;95254.38;;;20.63;51.79
30744;BME280;17486;46.738;7.622;2022-08-25T01:45:42;95247.13;;;20.46;52.45
30744;BME280;17486;46.738;7.622;2022-08-25T01:48:09;95246.00;;;20.38;52.54
30744;BME280;17486;46.738;7.622;2022-08-25T01:50:35;95228.19;;;20.31;52.86
30744;BME280;17486;46.738;7.622;2022-08-25T01:53:07;95256.72;;;20.47;52.52
30744;BME280;17486;46.738;7.622;2022-08-25T01:55:36;95273.97;;;20.51;52.77
30744;BME280;17486;46.738;7.622;2022-08-25T01:58:27;95267.28;;;20.47;52.92
30744;BME280;17486;46.738;7.622;2022-08-25T02:00:55;95276.59;;;20.51;52.90
30744;BME280;17486;46.738;7.622;2022-08-25T02:03:22;95246.53;;;20.32;52.71
30744;BME280;17486;46.738;7.622;2022-08-25T02:05:48;95274.94;;;20.50;52.84
30744;BME280;17486;46.738;7.622;2022-08-25T02:08:14;95261.56;;;20.42;52.81
30744;BME280;17486;46.738;7.622;2022-08-25T02:10:40;95263.41;;;20.41;52.81
30744;BME280;17486;46.738;7.622;2022-08-25T02:13:06;95281.47;;;20.46;52.53
30744;BME280;17486;46.738;7.622;2022-08-25T02:15:33;95237.47;;;20.25;52.65
30744;BME280;17486;46.738;7.622;2022-08-25T02:17:58;95269.66;;;20.40;52.81
30744;BME280;17486;46.738;7.622;2022-08-25T02:20:24;95267.81;;;20.41;52.86
30744;BME280;17486;46.738;7.622;2022-08-25T02:22:51;95272.53;;;20.37;52.76
30744;BME280;17486;46.738;7.622;2022-08-25T02:25:18;95251.25;;;20.29;52.93
30744;BME280;17486;46.738;7.622;2022-08-25T02:27:44;95251.97;;;20.31;52.94
30744;BME280;17486;46.738;7.622;2022-08-25T02:30:11;95270.03;;;20.35;53.11
30744;BME280;17486;46.738;7.622;2022-08-25T02:32:38;95270.47;;;20.31;53.10
30744;BME280;17486;46.738;7.622;2022-08-25T02:35:04;95269.88;;;20.27;53.24
30744;BME280;17486;46.738;7.622;2022-08-25T02:37:30;95273.50;;;20.26;53.25
30744;BME280;17486;46.738;7.622;2022-08-25T02:39:56;95267.53;;;20.24;53.38
30744;BME280;17486;46.738;7.622;2022-08-25T02:42:21;95247.59;;;20.10;53.26
30744;BME280;17486;46.738;7.622;2022-08-25T02:44:48;95277.38;;;20.22;53.36
30744;BME280;17486;46.738;7.622;2022-08-25T02:47:13;95278.91;;;20.15;53.53
30744;BME280;17486;46.738;7.622;2022-08-25T02:49:39;95271.22;;;20.12;53.65
30744;BME280;17486;46.738;7.622;2022-08-25T02:52:05;95284.19;;;20.15;53.64
30744;BME280;17486;46.738;7.622;2022-08-25T02:54:31;95289.28;;;20.07;53.58
30744;BME280;17486;46.738;7.622;2022-08-25T02:56:56;95278.69;;;19.97;54.01
30744;BME280;17486;46.738;7.622;2022-08-25T02:59:21;95261.66;;;19.80;53.72
30744;BME280;17486;46.738;7.622;2022-08-25T03:01:47;95277.84;;;19.96;54.10
30744;BME280;17486;46.738;7.622;2022-08-25T03:04:12;95281.19;;;19.98;54.10
30744;BME280;17486;46.738;7.622;2022-08-25T03:06:38;95248.59;;;19.78;54.17
30744;BME280;17486;46.738;7.622;2022-08-25T03:09:05;95272.84;;;19.93;54.30
30744;BME280;17486;46.738;7.622;2022-08-25T03:11:31;95274.53;;;19.94;54.24
30744;BME280;17486;46.738;7.622;2022-08-25T03:13:56;95268.38;;;19.94;54.20
30744;BME280;17486;46.738;7.622;2022-08-25T03:16:22;95272.84;;;19.93;54.25
30744;BME280;17486;46.738;7.622;2022-08-25T03:18:48;95252.88;;;19.79;54.07
30744;BME280;17486;46.738;7.622;2022-08-25T03:21:14;95268.34;;;19.84;54.30
30744;BME280;17486;46.738;7.622;2022-08-25T03:23:41;95282.53;;;19.83;54.63
30744;BME280;17486;46.738;7.622;2022-08-25T03:26:07;95247.72;;;19.68;54.66
30744;BME280;17486;46.738;7.622;2022-08-25T03:28:50;95268.59;;;19.81;54.69
30744;BME280;17486;46.738;7.622;2022-08-25T03:31:16;95255.78;;;19.76;54.49
30744;BME280;17486;46.738;7.622;2022-08-25T03:33:41;95263.56;;;19.78;54.49
30744;BME280;17486;46.738;7.622;2022-08-25T03:36:08;95273.53;;;19.74;54.36
30744;BME280;17486;46.738;7.622;2022-08-25T03:38:36;95259.81;;;19.70;54.60
30744;BME280;17486;46.738;7.622;2022-08-25T03:43:38;95270.16;;;19.62;54.67
30744;BME280;17486;46.738;7.622;2022-08-25T03:46:04;95243.59;;;19.54;54.78
30744;BME280;17486;46.738;7.622;2022-08-25T03:48:29;95246.97;;;19.56;55.14
30744;BME280;17486;46.738;7.622;2022-08-25T03:50:55;95258.72;;;19.52;54.80
30744;BME280;17486;46.738;7.622;2022-08-25T03:53:20;95221.44;;;19.35;54.88
30744;BME280;17486;46.738;7.622;2022-08-25T03:55:46;95207.81;;;19.30;54.91
30744;BME280;17486;46.738;7.622;2022-08-25T03:58:12;95245.41;;;19.53;54.80
30744;BME280;17486;46.738;7.622;2022-08-25T04:00:37;95237.63;;;19.52;54.82
30744;BME280;17486;46.738;7.622;2022-08-25T04:03:03;95212.81;;;19.33;55.08
30744;BME280;17486;46.738;7.622;2022-08-25T04:05:28;95225.63;;;19.38;54.99
30744;BME280;17486;46.738;7.622;2022-08-25T04:07:54;95214.75;;;19.31;54.97
30744;BME280;17486;46.738;7.622;2022-08-25T04:10:20;95246.66;;;19.49;54.98
30744;BME280;17486;46.738;7.622;2022-08-25T04:12:45;95239.94;;;19.45;55.18
30744;BME280;17486;46.738;7.622;2022-08-25T04:15:13;95215.84;;;19.29;54.99
30744;BME280;17486;46.738;7.622;2022-08-25T04:17:39;95219.31;;;19.29;55.08
30744;BME280;17486;46.738;7.622;2022-08-25T04:20:07;95225.91;;;19.35;55.01
30744;BME280;17486;46.738;7.622;2022-08-25T04:22:34;95246.75;;;19.48;54.88
30744;BME280;17486;46.738;7.622;2022-08-25T04:25:00;95245.22;;;19.45;54.88
30744;BME280;17486;46.738;7.622;2022-08-25T04:27:26;95247.16;;;19.43;55.02
30744;BME280;17486;46.738;7.622;2022-08-25T04:29:51;95247.41;;;19.40;54.61
30744;BME280;17486;46.738;7.622;2022-08-25T04:32:17;95220.56;;;19.25;54.88
30744;BME280;17486;46.738;7.622;2022-08-25T04:34:42;95249.34;;;19.38;55.12
30744;BME280;17486;46.738;7.622;2022-08-25T04:37:08;95229.09;;;19.17;55.19
30744;BME280;17486;46.738;7.622;2022-08-25T04:39:34;95256.00;;;19.32;55.13
30744;BME280;17486;46.738;7.622;2022-08-25T04:42:00;95230.19;;;19.15;55.20
30744;BME280;17486;46.738;7.622;2022-08-25T04:44:26;95248.59;;;19.26;55.31
30744;BME280;17486;46.738;7.622;2022-08-25T04:46:52;95255.97;;;19.11;55.39
30744;BME280;17486;46.738;7.622;2022-08-25T04:49:17;95251.88;;;18.97;55.58
30744;BME280;17486;46.738;7.622;2022-08-25T04:51:43;95250.22;;;18.85;56.05
30744;BME280;17486;46.738;7.622;2022-08-25T04:54:11;95210.34;;;18.57;56.31
30744;BME280;17486;46.738;7.622;2022-08-25T04:56:40;95247.38;;;18.77;56.70
30744;BME280;17486;46.738;7.622;2022-08-25T04:59:09;95226.34;;;18.65;56.64
30744;BME280;17486;46.738;7.622;2022-08-25T05:01:35;95243.78;;;18.78;56.66
30744;BME280;17486;46.738;7.622;2022-08-25T05:04:03;95226.56;;;18.73;56.71
30744;BME280;17486;46.738;7.622;2022-08-25T05:06:29;95226.75;;;18.82;56.58
30744;BME280;17486;46.738;7.622;2022-08-25T05:08:56;95233.22;;;18.89;56.47
30744;BME280;17486;46.738;7.622;2022-08-25T05:11:22;95249.94;;;18.99;56.48
30744;BME280;17486;46.738;7.622;2022-08-25T05:13:49;95262.59;;;19.05;56.55
30744;BME280;17486;46.738;7.622;2022-08-25T05:16:15;95226.97;;;18.90;56.48
30744;BME280;17486;46.738;7.622;2022-08-25T05:18:42;95220.63;;;18.93;56.38
30744;BME280;17486;46.738;7.622;2022-08-25T05:21:09;95219.53;;;18.95;56.30
30744;BME280;17486;46.738;7.622;2022-08-25T05:23:36;95246.03;;;19.15;56.38
30744;BME280;17486;46.738;7.622;2022-08-25T05:26:04;95244.25;;;19.15;56.17
30744;BME280;17486;46.738;7.622;2022-08-25T05:28:30;95253.69;;;19.18;56.35
30744;BME280;17486;46.738;7.622;2022-08-25T05:31:01;95206.75;;;18.91;56.56
30744;BME280;17486;46.738;7.622;2022-08-25T05:33:27;95241.25;;;19.09;56.62
30744;BME280;17486;46.738;7.622;2022-08-25T05:35:53;95243.19;;;19.07;56.89
30744;BME280;17486;46.738;7.622;2022-08-25T05:38:18;95234.78;;;19.13;56.69
30744;BME280;17486;46.738;7.622;2022-08-25T05:40:44;95239.91;;;19.14;56.75
30744;BME280;17486;46.738;7.622;2022-08-25T05:43:09;95243.00;;;19.19;56.54
30744;BME280;17486;46.738;7.622;2022-08-25T05:45:36;95202.69;;;19.08;56.63
30744;BME280;17486;46.738;7.622;2022-08-25T05:48:02;95195.75;;;19.07;56.47
30744;BME280;17486;46.738;7.622;2022-08-25T05:50:27;95207.44;;;19.14;56.45
30744;BME280;17486;46.738;7.622;2022-08-25T05:52:52;95234.03;;;19.32;56.50
30744;BME280;17486;46.738;7.622;2022-08-25T05:55:18;95230.91;;;19.38;56.53
30744;BME280;17486;46.738;7.622;2022-08-25T05:57:43;95233.13;;;19.43;56.26
30744;BME280;17486;46.738;7.622;2022-08-25T06:00:10;95234.28;;;19.50;56.15
30744;BME280;17486;46.738;7.622;2022-08-25T06:02:37;95221.78;;;19.52;56.16
30744;BME280;17486;46.738;7.622;2022-08-25T06:05:06;95206.75;;;19.43;55.95
30744;BME280;17486;46.738;7.622;2022-08-25T06:07:32;95209.59;;;19.51;55.85
30744;BME280;17486;46.738;7.622;2022-08-25T06:09:57;95196.53;;;19.49;55.55
30744;BME280;17486;46.738;7.622;2022-08-25T06:12:23;95224.69;;;19.80;55.46
30744;BME280;17486;46.738;7.622;2022-08-25T06:14:48;95236.69;;;19.84;55.38
30744;BME280;17486;46.738;7.622;2022-08-25T06:17:15;95241.69;;;19.87;55.43
30744;BME280;17486;46.738;7.622;2022-08-25T06:19:41;95217.69;;;19.90;55.33
30744;BME280;17486;46.738;7.622;2022-08-25T06:22:07;95188.56;;;19.80;55.39
30744;BME280;17486;46.738;7.622;2022-08-25T06:24:32;95218.28;;;20.03;55.41
30744;BME280;17486;46.738;7.622;2022-08-25T06:26:58;95228.03;;;20.13;55.41
30744;BME280;17486;46.738;7.622;2022-08-25T06:29:24;95191.88;;;20.03;54.99
30744;BME280;17486;46.738;7.622;2022-08-25T06:31:50;95188.94;;;20.07;55.04
30744;BME280;17486;46.738;7.622;2022-08-25T06:34:16;95225.28;;;20.34;54.98
30744;BME280;17486;46.738;7.622;2022-08-25T06:36:42;95188.16;;;20.26;55.04
30744;BME280;17486;46.738;7.622;2022-08-25T06:39:08;95204.84;;;20.46;54.79
30744;BME280;17486;46.738;7.622;2022-08-25T06:41:35;95223.75;;;20.51;54.92
30744;BME280;17486;46.738;7.622;2022-08-25T06:44:01;95203.88;;;20.57;54.83
30744;BME280;17486;46.738;7.622;2022-08-25T06:46:27;95193.03;;;20.50;54.59
30744;BME280;17486;46.738;7.622;2022-08-25T06:48:54;95211.41;;;20.71;54.62
30744;BME280;17486;46.738;7.622;2022-08-25T06:51:21;95176.34;;;20.59;54.99
30744;BME280;17486;46.738;7.622;2022-08-25T06:53:48;95211.69;;;20.87;54.78
30744;BME280;17486;46.738;7.622;2022-08-25T06:56:19;95214.31;;;20.97;54.31
30744;BME280;17486;46.738;7.622;2022-08-25T06:58:46;95183.31;;;20.90;54.25
30744;BME280;17486;46.738;7.622;2022-08-25T07:01:21;95185.94;;;20.99;54.25
30744;BME280;17486;46.738;7.622;2022-08-25T07:03:50;95211.78;;;21.25;54.12
30744;BME280;17486;46.738;7.622;2022-08-25T07:06:17;95219.41;;;21.38;53.99
30744;BME280;17486;46.738;7.622;2022-08-25T07:08:46;95186.25;;;21.34;53.48
30744;BME280;17486;46.738;7.622;2022-08-25T07:11:12;95183.63;;;21.34;53.10
30744;BME280;17486;46.738;7.622;2022-08-25T07:13:41;95188.59;;;21.47;52.94
30744;BME280;17486;46.738;7.622;2022-08-25T07:16:07;95209.06;;;21.64;52.57
30744;BME280;17486;46.738;7.622;2022-08-25T07:18:33;95208.59;;;21.69;51.99
30744;BME280;17486;46.738;7.622;2022-08-25T07:20:59;95206.41;;;21.64;51.90
30744;BME280;17486;46.738;7.622;2022-08-25T07:23:25;95190.94;;;21.69;51.63
30744;BME280;17486;46.738;7.622;2022-08-25T07:25:51;95210.91;;;21.82;51.68
30744;BME280;17486;46.738;7.622;2022-08-25T07:28:17;95205.19;;;21.86;51.73
30744;BME280;17486;46.738;7.622;2022-08-25T07:30:43;95207.09;;;21.94;51.41
30744;BME280;17486;46.738;7.622;2022-08-25T07:33:09;95206.50;;;22.00;51.31
30744;BME280;17486;46.738;7.622;2022-08-25T07:35:34;95185.53;;;21.89;51.22
30744;BME280;17486;46.738;7.622;2022-08-25T07:38:01;95211.47;;;22.13;51.03
30744;BME280;17486;46.738;7.622;2022-08-25T07:40:30;95184.19;;;22.03;50.98
30744;BME280;17486;46.738;7.622;2022-08-25T07:42:58;95200.28;;;22.19;50.80
30744;BME280;17486;46.738;7.622;2022-08-25T07:45:28;95179.50;;;22.15;50.98
30744;BME280;17486;46.738;7.622;2022-08-25T07:48:06;95191.03;;;22.24;50.81
30744;BME280;17486;46.738;7.622;2022-08-25T07:50:34;95216.00;;;22.49;50.72
30744;BME280;17486;46.738;7.622;2022-08-25T07:53:02;95220.38;;;22.58;50.71
30744;BME280;17486;46.738;7.622;2022-08-25T07:55:28;95215.19;;;22.66;51.04
30744;BME280;17486;46.738;7.622;2022-08-25T07:57:55;95190.56;;;22.56;50.58
30744;BME280;17486;46.738;7.622;2022-08-25T08:00:29;95199.66;;;22.72;50.52
30744;BME280;17486;46.738;7.622;2022-08-25T08:02:58;95216.66;;;22.87;50.24
30744;BME280;17486;46.738;7.622;2022-08-25T08:05:24;95206.22;;;22.85;50.07
30744;BME280;17486;46.738;7.622;2022-08-25T08:07:51;95199.25;;;22.84;50.34
30744;BME280;17486;46.738;7.622;2022-08-25T08:10:17;95198.84;;;22.97;50.22
30744;BME280;17486;46.738;7.622;2022-08-25T08:12:43;95228.25;;;23.22;49.44
30744;BME280;17486;46.738;7.622;2022-08-25T08:15:10;95217.81;;;23.21;48.68
30744;BME280;17486;46.738;7.622;2022-08-25T08:17:35;95224.31;;;23.26;48.55
30744;BME280;17486;46.738;7.622;2022-08-25T08:20:02;95224.66;;;23.31;48.22
30744;BME280;17486;46.738;7.622;2022-08-25T08:22:30;95227.66;;;23.28;47.97
30744;BME280;17486;46.738;7.622;2022-08-25T08:24:55;95204.53;;;23.21;48.26
30744;BME280;17486;46.738;7.622;2022-08-25T08:27:21;95201.41;;;23.25;48.28
30744;BME280;17486;46.738;7.622;2022-08-25T08:29:46;95203.16;;;23.34;48.15
30744;BME280;17486;46.738;7.622;2022-08-25T08:32:12;95218.69;;;23.56;47.99
30744;BME280;17486;46.738;7.622;2022-08-25T08:34:38;95204.06;;;23.51;48.52
30744;BME280;17486;46.738;7.622;2022-08-25T08:37:05;95227.59;;;23.73;49.09
30744;BME280;17486;46.738;7.622;2022-08-25T08:39:30;95213.78;;;23.69;48.44
30744;BME280;17486;46.738;7.622;2022-08-25T08:52:37;95221.38;;;24.33;48.61
30744;BME280;17486;46.738;7.622;2022-08-25T08:55:10;95204.59;;;24.32;48.10
30744;BME280;17486;46.738;7.622;2022-08-25T08:57:43;95228.91;;;24.54;48.19
30744;BME280;17486;46.738;7.622;2022-08-25T09:00:10;95212.13;;;24.62;47.62
30744;BME280;17486;46.738;7.622;2022-08-25T09:02:41;95217.66;;;24.77;47.47
30744;BME280;17486;46.738;7.622;2022-08-25T09:05:12;95208.03;;;24.84;47.25
30744;BME280;17486;46.738;7.622;2022-08-25T09:07:44;95220.00;;;24.96;47.17
30744;BME280;17486;46.738;7.622;2022-08-25T09:10:13;95212.69;;;25.07;46.87
30744;BME280;17486;46.738;7.622;2022-08-25T09:12:43;95212.03;;;25.13;46.68
30744;BME280;17486;46.738;7.622;2022-08-25T09:19:04;95210.66;;;25.33;47.02
30744;BME280;17486;46.738;7.622;2022-08-25T09:21:34;95206.84;;;25.44;46.94
30744;BME280;17486;46.738;7.622;2022-08-25T09:24:12;95203.69;;;25.57;46.81
30744;BME280;17486;46.738;7.622;2022-08-25T09:29:22;95185.81;;;25.66;46.66
30744;BME280;17486;46.738;7.622;2022-08-25T09:31:48;95173.16;;;25.68;46.03
30744;BME280;17486;46.738;7.622;2022-08-25T09:34:22;95204.75;;;25.88;45.89
30744;BME280;17486;46.738;7.622;2022-08-25T09:36:49;95173.81;;;25.78;45.70
30744;BME280;17486;46.738;7.622;2022-08-25T09:39:17;95175.63;;;25.78;45.45
30744;BME280;17486;46.738;7.622;2022-08-25T09:41:54;95203.53;;;25.98;45.61
30744;BME280;17486;46.738;7.622;2022-08-25T09:44:51;95174.91;;;25.92;45.19
30744;BME280;17486;46.738;7.622;2022-08-25T09:49:43;95180.56;;;26.29;44.87
30744;BME280;17486;46.738;7.622;2022-08-25T09:52:38;95170.09;;;26.27;44.97
30744;BME280;17486;46.738;7.622;2022-08-25T09:57:44;95172.91;;;26.57;45.49
30744;BME280;17486;46.738;7.622;2022-08-25T10:00:10;95143.56;;;26.57;45.67
30744;BME280;17486;46.738;7.622;2022-08-25T10:02:37;95167.34;;;26.90;44.48
30744;BME280;17486;46.738;7.622;2022-08-25T10:05:24;95133.22;;;27.01;42.80
30744;BME280;17486;46.738;7.622;2022-08-25T10:07:56;95140.16;;;27.25;41.06
30744;BME280;17486;46.738;7.622;2022-08-25T10:10:31;95148.88;;;27.42;40.95
30744;BME280;17486;46.738;7.622;2022-08-25T10:12:58;95166.19;;;27.61;41.97
30744;BME280;17486;46.738;7.622;2022-08-25T10:15:36;95154.59;;;27.69;42.40
30744;BME280;17486;46.738;7.622;2022-08-25T10:18:21;95159.22;;;27.75;43.01
30744;BME280;17486;46.738;7.622;2022-08-25T10:21:14;95153.00;;;27.74;42.48
30744;BME280;17486;46.738;7.622;2022-08-25T10:23:49;95150.81;;;27.78;43.01
30744;BME280;17486;46.738;7.622;2022-08-25T10:35:04;95139.84;;;28.03;39.17
30744;BME280;17486;46.738;7.622;2022-08-25T10:37:40;95132.16;;;28.15;39.14
30744;BME280;17486;46.738;7.622;2022-08-25T10:40:32;95129.16;;;28.24;38.40
30744;BME280;17486;46.738;7.622;2022-08-25T10:43:06;95123.97;;;28.38;38.14
30744;BME280;17486;46.738;7.622;2022-08-25T10:45:48;95132.44;;;28.41;38.39
30744;BME280;17486;46.738;7.622;2022-08-25T10:51:05;95123.50;;;28.71;38.03
30744;BME280;17486;46.738;7.622;2022-08-25T10:56:33;95115.56;;;29.06;37.42
30744;BME280;17486;46.738;7.622;2022-08-25T11:04:25;95099.69;;;29.74;35.78
30744;BME280;17486;46.738;7.622;2022-08-25T11:06:59;95107.03;;;29.94;35.47
30744;BME280;17486;46.738;7.622;2022-08-25T11:09:32;95087.03;;;29.97;35.09
30744;BME280;17486;46.738;7.622;2022-08-25T11:12:29;95098.47;;;30.25;35.38
30744;BME280;17486;46.738;7.622;2022-08-25T11:15:02;95101.81;;;30.41;34.82
30744;BME280;17486;46.738;7.622;2022-08-25T11:18:08;95097.94;;;30.64;34.71
30744;BME280;17486;46.738;7.622;2022-08-25T11:20:52;95098.56;;;30.79;34.39
30744;BME280;17486;46.738;7.622;2022-08-25T11:23:43;95088.41;;;30.88;33.75
30744;BME280;17486;46.738;7.622;2022-08-25T11:26:12;95089.28;;;30.82;34.10
30744;BME280;17486;46.738;7.622;2022-08-25T11:31:07;95090.91;;;30.63;33.72
30744;BME280;17486;46.738;7.622;2022-08-25T11:33:33;95078.50;;;30.55;33.94
30744;BME280;17486;46.738;7.622;2022-08-25T11:36:10;95080.78;;;30.51;34.51
30744;BME280;17486;46.738;7.622;2022-08-25T11:41:45;95054.50;;;30.40;34.32
30744;BME280;17486;46.738;7.622;2022-08-25T11:49:58;95061.19;;;30.71;34.61
30744;BME280;17486;46.738;7.622;2022-08-25T11:57:41;95063.84;;;30.98;33.74
30744;BME280;17486;46.738;7.622;2022-08-25T12:00:34;95066.75;;;31.09;33.85
30744;BME280;17486;46.738;7.622;2022-08-25T12:27:26;95038.00;;;31.30;32.74
30744;BME280;17486;46.738;7.622;2022-08-25T12:29:56;95053.81;;;31.52;32.82
30744;BME280;17486;46.738;7.622;2022-08-25T12:32:44;95061.50;;;31.48;32.57
30744;BME280;17486;46.738;7.622;2022-08-25T12:35:22;95058.38;;;31.51;32.56
30744;BME280;17486;46.738;7.622;2022-08-25T12:43:23;95023.75;;;31.16;33.13
30744;BME280;17486;46.738;7.622;2022-08-25T12:48:52;95035.50;;;31.22;33.72
30744;BME280;17486;46.738;7.622;2022-08-25T12:51:21;95021.09;;;31.09;32.90
30744;BME280;17486;46.738;7.622;2022-08-25T12:53:48;95045.44;;;31.21;33.50
30744;BME280;17486;46.738;7.622;2022-08-25T12:56:20;95038.00;;;31.23;33.34
30744;BME280;17486;46.738;7.622;2022-08-25T13:01:29;95045.44;;;31.21;33.18
30744;BME280;17486;46.738;7.622;2022-08-25T13:04:14;95047.91;;;31.30;33.06
30744;BME280;17486;46.738;7.622;2022-08-25T13:07:08;95032.56;;;31.44;32.41
30744;BME280;17486;46.738;7.622;2022-08-25T13:14:56;95021.53;;;31.72;31.64
30744;BME280;17486;46.738;7.622;2022-08-25T13:17:27;94999.84;;;31.60;31.16
30744;BME280;17486;46.738;7.622;2022-08-25T13:20:15;95015.91;;;31.80;31.49
30744;BME280;17486;46.738;7.622;2022-08-25T13:22:39;95027.44;;;31.94;31.16
30744;BME280;17486;46.738;7.622;2022-08-25T13:25:05;95018.00;;;32.10;30.95
30744;BME280;17486;46.738;7.622;2022-08-25T13:27:35;95019.09;;;32.34;30.54
30744;BME280;17486;46.738;7.622;2022-08-25T13:30:01;94999.06;;;32.30;30.09
30744;BME280;17486;46.738;7.622;2022-08-25T13:32:30;95007.25;;;32.42;29.95
30744;BME280;17486;46.738;7.622;2022-08-25T13:37:39;94985.06;;;32.47;29.88
30744;BME280;17486;46.738;7.622;2022-08-25T13:40:26;95003.72;;;32.73;29.88
30744;BME280;17486;46.738;7.622;2022-08-25T13:43:05;94973.44;;;32.78;29.69
30744;BME280;17486;46.738;7.622;2022-08-25T13:45:35;94971.63;;;32.90;28.89
30744;BME280;17486;46.738;7.622;2022-08-25T13:48:02;94978.38;;;33.00;29.35
30744;BME280;17486;46.738;7.622;2022-08-25T13:50:36;94980.56;;;33.10;29.04
30744;BME280;17486;46.738;7.622;2022-08-25T13:53:19;94990.09;;;33.12;28.16
30744;BME280;17486;46.738;7.622;2022-08-25T13:55:58;94984.53;;;32.88;28.45
30744;BME280;17486;46.738;7.622;2022-08-25T13:58:33;94965.56;;;32.77;29.04
30744;BME280;17486;46.738;7.622;2022-08-25T14:01:08;94979.50;;;32.67;28.70
30744;BME280;17486;46.738;7.622;2022-08-25T14:03:41;94990.34;;;32.60;29.09
30744;BME280;17486;46.738;7.622;2022-08-25T14:08:45;94971.16;;;32.50;29.32
30744;BME280;17486;46.738;7.622;2022-08-25T14:11:13;94980.66;;;32.52;29.37
30744;BME280;17486;46.738;7.622;2022-08-25T14:13:40;94983.13;;;32.54;29.15
30744;BME280;17486;46.738;7.622;2022-08-25T14:16:19;94985.59;;;32.55;28.92
30744;BME280;17486;46.738;7.622;2022-08-25T14:18:50;94974.66;;;32.50;28.47
30744;BME280;17486;46.738;7.622;2022-08-25T14:21:18;94978.53;;;32.61;28.57
30744;BME280;17486;46.738;7.622;2022-08-25T14:23:44;94976.19;;;32.65;28.90
30744;BME280;17486;46.738;7.622;2022-08-25T14:26:10;94981.53;;;32.71;28.11
30744;BME280;17486;46.738;7.622;2022-08-25T14:28:35;94985.63;;;32.81;28.32
30744;BME280;17486;46.738;7.622;2022-08-25T14:31:08;94980.41;;;32.86;28.08
30744;BME280;17486;46.738;7.622;2022-08-25T14:33:39;94955.69;;;32.89;27.91
30744;BME280;17486;46.738;7.622;2022-08-25T14:36:08;94965.59;;;33.14;27.90
30744;BME280;17486;46.738;7.622;2022-08-25T14:38:34;94958.09;;;33.16;27.57
30744;BME280;17486;46.738;7.622;2022-08-25T14:41:03;94962.41;;;33.42;27.25
30744;BME280;17486;46.738;7.622;2022-08-25T14:43:29;94963.56;;;33.65;27.34
30744;BME280;17486;46.738;7.622;2022-08-25T14:45:55;94948.22;;;33.77;28.19
30744;BME280;17486;46.738;7.622;2022-08-25T14:48:27;94938.72;;;33.75;27.12
30744;BME280;17486;46.738;7.622;2022-08-25T14:50:55;94959.72;;;34.03;26.88
30744;BME280;17486;46.738;7.622;2022-08-25T14:53:21;94963.38;;;34.09;26.00
30744;BME280;17486;46.738;7.622;2022-08-25T14:55:47;94951.16;;;34.06;26.04
30744;BME280;17486;46.738;7.622;2022-08-25T14:58:13;94964.47;;;34.19;26.40
30744;BME280;17486;46.738;7.622;2022-08-25T15:00:41;94967.88;;;34.27;25.87
30744;BME280;17486;46.738;7.622;2022-08-25T15:03:11;94959.94;;;34.32;26.08